Flight Track Log - Related Links

Times and Time Zones

All times are in EDT time to prevent confusion due to time zone crossing. See the D-AIMA flight status page for this flight to view local times or setup timezone preferences in your user account.

Time Position Orientation Groundspeed Altitude Reporting Facility
EDT Latitude Longitude Course Direction KTS MPH feet Rate Location/Type
Sun 10:43:00 PM 40.4472 116.1713 319° Northwest  Level Estimated
Sun 10:44:00 PM 40.5387 116.0673 319° Northwest  Level Estimated
Sun 10:45:00 PM 40.6302 115.9630 319° Northwest  Level Estimated
Sun 10:46:00 PM 40.7215 115.8584 319° Northwest  Level Estimated
Sun 10:47:00 PM 40.8128 115.7536 319° Northwest  Level Estimated
Sun 10:48:00 PM 40.9039 115.6484 319° Northwest  Level Estimated
Sun 10:49:00 PM 40.9950 115.5430 319° Northwest  Level Estimated
Sun 10:50:00 PM 41.0860 115.4372 319° Northwest  Level Estimated
Sun 10:51:00 PM 41.1769 115.3312 319° Northwest  Level Estimated
Sun 10:52:00 PM 41.2676 115.2249 319° Northwest  Level Estimated
Sun 10:53:00 PM 41.3583 115.1182 319° Northwest  Level Estimated
Sun 10:54:00 PM 41.4489 115.0113 319° Northwest  Level Estimated
Sun 10:55:00 PM 41.5394 114.9041 318° Northwest  Level Estimated
Sun 10:56:00 PM 41.6298 114.7966 318° Northwest  Level Estimated
Sun 10:57:00 PM 41.7200 114.6888 318° Northwest  Level Estimated
Sun 10:58:00 PM 41.8102 114.5806 318° Northwest  Level Estimated
Sun 10:59:00 PM 41.9003 114.4722 318° Northwest  Level Estimated
Sun 11:00:00 PM 41.9903 114.3635 318° Northwest  Level Estimated
Sun 11:01:00 PM 42.0801 114.2544 318° Northwest  Level Estimated
Sun 11:02:00 PM 42.1699 114.1451 318° Northwest  Level Estimated
Sun 11:03:00 PM 42.2596 114.0354 318° Northwest  Level Estimated
Sun 11:04:00 PM 42.3491 113.9255 318° Northwest  Level Estimated
Sun 11:05:00 PM 42.4386 113.8152 318° Northwest  Level Estimated
Sun 11:06:00 PM 42.5279 113.7046 318° Northwest  Level Estimated
Sun 11:07:00 PM 42.6172 113.5936 318° Northwest  Level Estimated
Sun 11:08:00 PM 42.7063 113.4824 317° Northwest  Level Estimated
Sun 11:09:00 PM 42.7953 113.3708 317° Northwest  Level Estimated
Sun 11:10:00 PM 42.8843 113.2590 317° Northwest  Level Estimated
Sun 11:11:00 PM 42.9731 113.1468 317° Northwest  Level Estimated
Sun 11:12:00 PM 43.0618 113.0342 317° Northwest  Level Estimated
Sun 11:13:00 PM 43.1503 112.9214 317° Northwest  Level Estimated
Sun 11:14:00 PM 43.2388 112.8082 317° Northwest  Level Estimated
Sun 11:15:00 PM 43.3272 112.6947 317° Northwest  Level Estimated
Sun 11:16:00 PM 43.4154 112.5808 317° Northwest  Level Estimated
Sun 11:17:00 PM 43.5036 112.4667 317° Northwest  Level Estimated
Sun 11:18:00 PM 43.5916 112.3522 317° Northwest  Level Estimated
Sun 11:19:00 PM 43.6795 112.2373 317° Northwest  Level Estimated
Sun 11:20:00 PM 43.7673 112.1222 317° Northwest  Level Estimated
Sun 11:21:00 PM 43.8550 112.0066 316° Northwest  Level Estimated
Sun 11:22:00 PM 43.9425 111.8908 316° Northwest  Level Estimated
Sun 11:23:00 PM 44.0300 111.7746 316° Northwest  Level Estimated
Sun 11:24:00 PM 44.1173 111.6580 316° Northwest  Level Estimated
Sun 11:25:00 PM 44.2045 111.5412 316° Northwest  Level Estimated
Sun 11:26:00 PM 44.2916 111.4239 316° Northwest  Level Estimated
Sun 11:27:00 PM 44.3786 111.3064 316° Northwest  Level Estimated
Sun 11:28:00 PM 44.4654 111.1884 316° Northwest  Level Estimated
Sun 11:29:00 PM 44.5522 111.0701 316° Northwest  Level Estimated
Sun 11:30:00 PM 44.6387 110.9515 316° Northwest  Level Estimated
Sun 11:31:00 PM 44.7252 110.8325 316° Northwest  Level Estimated
Sun 11:32:00 PM 44.8116 110.7132 316° Northwest  Level Estimated
Sun 11:33:00 PM 44.8978 110.5935 316° Northwest  Level Estimated
Sun 11:34:00 PM 44.9839 110.4734 315° West  Level Estimated
Sun 11:35:00 PM 45.0699 110.3530 315° West  Level Estimated
Sun 11:36:00 PM 45.1558 110.2322 315° West  Level Estimated
Sun 11:37:00 PM 45.2415 110.1111 315° West  Level Estimated
Sun 11:38:00 PM 45.3271 109.9896 315° West  Level Estimated
Sun 11:39:00 PM 45.4126 109.8677 315° West  Level Estimated
Sun 11:40:00 PM 45.4979 109.7454 315° West  Level Estimated
Sun 11:41:00 PM 45.5831 109.6228 315° West  Level Estimated
Sun 11:42:00 PM 45.6682 109.4998 315° West  Level Estimated
Sun 11:43:00 PM 45.7531 109.3764 315° West  Level Estimated
Sun 11:44:00 PM 45.8379 109.2527 315° West  Level Estimated
Sun 11:45:00 PM 45.9226 109.1286 314° West  Level Estimated
Sun 11:46:00 PM 46.0071 109.0041 314° West  Level Estimated
Sun 11:47:00 PM 46.0915 108.8792 314° West  Level Estimated
Sun 11:48:00 PM 46.1758 108.7540 314° West  Level Estimated
Sun 11:49:00 PM 46.2599 108.6283 314° West  Level Estimated
Sun 11:50:00 PM 46.3439 108.5023 314° West  Level Estimated
Sun 11:51:00 PM 46.4278 108.3758 314° West  Level Estimated
Sun 11:52:00 PM 46.5115 108.2490 314° West  Level Estimated
Sun 11:53:00 PM 46.5951 108.1218 314° West  Level Estimated
Sun 11:54:00 PM 46.6785 107.9942 314° West  Level Estimated
Sun 11:55:00 PM 46.7618 107.8663 314° West  Level Estimated
Sun 11:56:00 PM 46.8449 107.7379 313° West  Level Estimated
Sun 11:57:00 PM 46.9279 107.6091 313° West  Level Estimated
Sun 11:58:00 PM 47.0108 107.4799 313° West  Level Estimated
Sun 11:59:00 PM 47.0935 107.3503 313° West  Level Estimated
Mon 12:00:00 AM 47.1761 107.2204 313° West  Level Estimated
Mon 12:01:00 AM 47.2585 107.0900 313° West  Level Estimated
Mon 12:02:00 AM 47.3408 106.9592 313° West  Level Estimated
Mon 12:03:00 AM 47.4229 106.8280 313° West  Level Estimated
Mon 12:04:00 AM 47.5048 106.6964 313° West  Level Estimated
Mon 12:05:00 AM 47.5867 106.5643 313° West  Level Estimated
Mon 12:06:00 AM 47.6683 106.4319 313° West  Level Estimated
Mon 12:07:00 AM 47.7498 106.2990 312° West  Level Estimated
Mon 12:08:00 AM 47.8312 106.1658 312° West  Level Estimated
Mon 12:09:00 AM 47.9124 106.0321 312° West  Level Estimated
Mon 12:10:00 AM 47.9935 105.8980 312° West  Level Estimated
Mon 12:11:00 AM 48.0743 105.7635 312° West  Level Estimated
Mon 12:12:00 AM 48.1551 105.6285 312° West  Level Estimated
Mon 12:13:00 AM 48.2357 105.4931 312° West  Level Estimated
Mon 12:14:00 AM 48.3161 105.3573 312° West  Level Estimated
Mon 12:15:00 AM 48.3964 105.2211 312° West  Level Estimated
Mon 12:16:00 AM 48.4765 105.0844 312° West  Level Estimated
Mon 12:17:00 AM 48.5564 104.9473 311° West  Level Estimated
Mon 12:18:00 AM 48.6362 104.8098 311° West  Level Estimated
Mon 12:19:00 AM 48.7158 104.6719 311° West  Level Estimated
Mon 12:20:00 AM 48.7952 104.5334 311° West  Level Estimated
Mon 12:21:00 AM 48.8745 104.3946 311° West  Level Estimated
Mon 12:22:00 AM 48.9536 104.2553 311° West  Level Estimated
Mon 12:23:00 AM 49.0325 104.1156 311° West  Level Estimated
Mon 12:24:00 AM 49.1113 103.9754 311° West  Level Estimated
Mon 12:25:00 AM 49.1899 103.8348 311° West  Level Estimated
Mon 12:26:00 AM 49.2683 103.6938 310° West  Level Estimated
Mon 12:27:00 AM 49.3466 103.5523 310° West  Level Estimated
Mon 12:28:00 AM 49.4247 103.4103 310° West  Level Estimated
Mon 12:29:00 AM 49.5026 103.2679 310° West  Level Estimated
Mon 12:30:00 AM 49.5803 103.1251 310° West  Level Estimated
Mon 12:31:00 AM 49.6579 102.9817 310° West  Level Estimated
Mon 12:32:00 AM 49.7352 102.8380 310° West  Level Estimated
Mon 12:33:00 AM 49.8125 102.6937 310° West  Level Estimated
Mon 12:34:00 AM 49.8895 102.5490 310° West  Level Estimated
Mon 12:35:00 AM 49.9663 102.4039 309° West  Level Estimated
Mon 12:36:00 AM 50.0430 102.2583 309° West  Level Estimated
Mon 12:37:00 AM 50.1194 102.1122 309° West  Level Estimated
Mon 12:38:00 AM 50.1957 101.9657 309° West  Level Estimated
Mon 12:39:00 AM 50.2719 101.8186 309° West  Level Estimated
Mon 12:40:00 AM 50.3478 101.6711 309° West  Level Estimated
Mon 12:41:00 AM 50.4235 101.5232 309° West  Level Estimated
Mon 12:42:00 AM 50.4991 101.3747 309° West  Level Estimated
Mon 12:43:00 AM 50.5744 101.2258 309° West  Level Estimated
Mon 12:44:00 AM 50.6496 101.0765 308° West  Level Estimated
Mon 12:45:00 AM 50.7246 100.9266 308° West  Level Estimated
Mon 12:46:00 AM 50.7994 100.7763 308° West  Level Estimated
Mon 12:47:00 AM 50.8739 100.6254 308° West  Level Estimated
Mon 12:48:00 AM 50.9483 100.4741 308° West  Level Estimated
Mon 12:49:00 AM 51.0225 100.3223 308° West  Level Estimated
Mon 12:50:00 AM 51.0965 100.1701 308° West  Level Estimated
Mon 12:51:00 AM 51.1703 100.0173 308° West  Level Estimated
Mon 12:52:00 AM 51.2439 99.8641 308° West  Level Estimated
Mon 12:53:00 AM 51.3173 99.7103 307° West  Level Estimated
Mon 12:54:00 AM 51.3905 99.5561 307° West  Level Estimated
Mon 12:55:00 AM 51.4635 99.4013 307° West  Level Estimated
Mon 12:56:00 AM 51.5363 99.2461 307° West  Level Estimated
Mon 12:57:00 AM 51.6089 99.0904 307° West  Level Estimated
Mon 12:58:00 AM 51.6813 98.9342 307° West  Level Estimated
Mon 12:59:00 AM 51.7535 98.7775 307° West  Level Estimated
Mon 01:00:00 AM 51.8254 98.6202 307° West  Level Estimated
Mon 01:01:00 AM 51.8972 98.4625 306° West  Level Estimated
Mon 01:02:00 AM 51.9687 98.3043 306° West  Level Estimated
Mon 01:03:00 AM 52.0400 98.1456 306° West  Level Estimated
Mon 01:04:00 AM 52.1112 97.9863 306° West  Level Estimated
Mon 01:05:00 AM 52.1821 97.8266 306° West  Level Estimated
Mon 01:06:00 AM 52.2527 97.6663 306° West  Level Estimated
Mon 01:07:00 AM 52.3232 97.5055 306° West  Level Estimated
Mon 01:08:00 AM 52.3935 97.3443 306° West  Level Estimated
Mon 01:09:00 AM 52.4635 97.1825 305° West  Level Estimated
Mon 01:10:00 AM 52.5333 97.0201 305° West  Level Estimated
Mon 01:11:00 AM 52.6029 96.8573 305° West  Level Estimated
Mon 01:12:00 AM 52.6722 96.6940 305° West  Level Estimated
Mon 01:13:00 AM 52.7414 96.5301 305° West  Level Estimated
Mon 01:14:00 AM 52.8103 96.3658 305° West  Level Estimated
Mon 01:15:00 AM 52.8790 96.2009 305° West  Level Estimated
Mon 01:16:00 AM 52.9474 96.0354 305° West  Level Estimated
Mon 01:17:00 AM 53.0156 95.8695 304° West  Level Estimated
Mon 01:18:00 AM 53.0836 95.7030 304° West  Level Estimated
Mon 01:19:00 AM 53.1514 95.5360 304° West  Level Estimated
Mon 01:20:00 AM 53.2189 95.3685 304° West  Level Estimated
Mon 01:21:00 AM 53.2862 95.2004 304° West  Level Estimated
Mon 01:22:00 AM 53.3532 95.0319 304° West  Level Estimated
Mon 01:23:00 AM 53.4200 94.8627 304° West  Level Estimated
Mon 01:24:00 AM 53.4866 94.6931 303° West  Level Estimated
Mon 01:25:00 AM 53.5529 94.5229 303° West  Level Estimated
Mon 01:26:00 AM 53.6190 94.3522 303° West  Level Estimated
Mon 01:27:00 AM 53.6849 94.1810 303° West  Level Estimated
Mon 01:28:00 AM 53.7505 94.0092 303° West  Level Estimated
Mon 01:29:00 AM 53.8158 93.8369 303° West  Level Estimated
Mon 01:30:00 AM 53.8809 93.6640 303° West  Level Estimated
Mon 01:31:00 AM 53.9458 93.4907 302° West  Level Estimated
Mon 01:32:00 AM 54.0104 93.3167 302° West  Level Estimated
Mon 01:33:00 AM 54.0747 93.1423 302° West  Level Estimated
Mon 01:34:00 AM 54.1388 92.9672 302° West  Level Estimated
Mon 01:35:00 AM 54.2027 92.7917 302° West  Level Estimated
Mon 01:36:00 AM 54.2663 92.6156 302° West  Level Estimated
Mon 01:37:00 AM 54.3296 92.4390 302° West  Level Estimated
Mon 01:38:00 AM 54.3927 92.2618 301° West  Level Estimated
Mon 01:39:00 AM 54.4555 92.0841 301° West  Level Estimated
Mon 01:40:00 AM 54.5180 91.9058 301° West  Level Estimated
Mon 01:41:00 AM 54.5803 91.7270 301° West  Level Estimated
Mon 01:42:00 AM 54.6423 91.5476 301° West  Level Estimated
Mon 01:43:00 AM 54.7041 91.3677 301° West  Level Estimated
Mon 01:44:00 AM 54.7656 91.1873 301° West  Level Estimated
Mon 01:45:00 AM 54.8268 91.0063 300° West  Level Estimated
Mon 01:46:00 AM 54.8877 90.8247 300° West  Level Estimated
Mon 01:47:00 AM 54.9484 90.6426 300° West  Level Estimated
Mon 01:48:00 AM 55.0088 90.4600 300° West  Level Estimated
Mon 01:49:00 AM 55.0690 90.2768 300° West  Level Estimated
Mon 01:50:00 AM 55.1288 90.0930 300° West  Level Estimated
Mon 01:51:00 AM 55.1884 89.9087 300° West  Level Estimated
Mon 01:52:00 AM 55.2477 89.7239 299° West  Level Estimated
Mon 01:53:00 AM 55.3067 89.5385 299° West  Level Estimated
Mon 01:54:00 AM 55.3655 89.3525 299° West  Level Estimated
Mon 01:55:00 AM 55.4239 89.1660 299° West  Level Estimated
Mon 01:56:00 AM 55.4821 88.9790 299° West  Level Estimated
Mon 01:57:00 AM 55.5400 88.7914 299° West  Level Estimated
Mon 01:58:00 AM 55.5976 88.6032 299° West  Level Estimated
Mon 01:59:00 AM 55.6549 88.4145 298° West  Level Estimated
Mon 02:00:00 AM 55.7119 88.2252 298° West  Level Estimated
Mon 02:01:00 AM 55.7687 88.0354 298° West  Level Estimated
Mon 02:02:00 AM 55.8251 87.8450 298° West  Level Estimated
Mon 02:03:00 AM 55.8812 87.6541 298° West  Level Estimated
Mon 02:04:00 AM 55.9371 87.4626 298° West  Level Estimated
Mon 02:05:00 AM 55.9926 87.2706 297° West  Level Estimated
Mon 02:06:00 AM 56.0479 87.0780 297° West  Level Estimated
Mon 02:07:00 AM 56.1028 86.8849 297° West  Level Estimated
Mon 02:08:00 AM 56.1575 86.6913 297° West  Level Estimated
Mon 02:09:00 AM 56.2118 86.4970 297° West  Level Estimated
Mon 02:10:00 AM 56.2658 86.3023 297° West  Level Estimated
Mon 02:11:00 AM 56.3195 86.1069 296° West  Level Estimated
Mon 02:12:00 AM 56.3730 85.9111 296° West  Level Estimated
Mon 02:13:00 AM 56.4261 85.7147 296° West  Level Estimated
Mon 02:14:00 AM 56.4789 85.5177 296° West  Level Estimated
Mon 02:15:00 AM 56.5314 85.3202 296° West  Level Estimated
Mon 02:16:00 AM 56.5835 85.1221 296° West  Level Estimated
Mon 02:16:33 AM 56.3520 88.7980 295° West 425 489 38,000  Level FlightAware
Mon 02:17:00 AM 56.6354 84.9235 295° West  Level Estimated
Mon 02:17:13 AM 56.3790 88.6650 290° West 424 488 38,000  Level FlightAware
Mon 02:17:58 AM 56.4100 88.5170 291° West 425 489 38,000  Level FlightAware
Mon 02:18:38 AM 56.4370 88.3860 290° West 427 491 38,000  Level FlightAware
Mon 02:19:18 AM 56.4650 88.2540 291° West 427 491 38,000  Level FlightAware
Mon 02:20:03 AM 56.4980 88.0940 291° West 426 490 38,000  Level FlightAware
Mon 02:20:43 AM 56.5240 87.9660 290° West 427 491 38,000  Level FlightAware
Mon 02:21:28 AM 56.5540 87.8190 290° West 427 491 38,000  Level FlightAware
Mon 02:22:08 AM 56.5820 87.6830 291° West 426 490 38,000  Level FlightAware
Mon 02:22:48 AM 56.6090 87.5490 290° West 427 491 38,000  Level FlightAware
Mon 02:23:33 AM 56.6390 87.3980 290° West 427 491 38,000  Level FlightAware
Mon 02:24:13 AM 56.6650 87.2660 290° West 428 493 38,000  Level FlightAware
Mon 02:24:43 AM 56.6850 87.1610 289° West 429 494 38,000  Level FlightAware
Mon 02:25:23 AM 56.7120 87.0250 290° West 427 491 38,000  Level FlightAware
Mon 02:26:08 AM 56.7410 86.8740 289° West 427 491 38,000  Level FlightAware
Mon 02:26:48 AM 56.7670 86.7410 290° West 428 493 38,000  Level FlightAware
Mon 02:27:28 AM 56.7940 86.6000 289° West 428 493 38,000  Level FlightAware
Mon 02:28:13 AM 56.8230 86.4470 289° West 429 494 38,000  Level FlightAware
Mon 02:28:53 AM 56.8490 86.3090 289° West 427 491 38,000  Level FlightAware
Mon 02:29:38 AM 56.8780 86.1540 289° West 427 491 38,000  Level FlightAware
Mon 02:30:18 AM 56.9030 86.0180 289° West 428 493 38,000  Level FlightAware
Mon 02:30:58 AM 56.9280 85.8820 289° West 428 493 38,000  Level FlightAware
Mon 02:31:43 AM 56.9570 85.7270 289° West 430 495 38,000  Level FlightAware
Mon 02:32:23 AM 56.9820 85.5870 288° West 430 495 38,000  Level FlightAware
Mon 02:33:03 AM 57.0060 85.4530 288° West 431 496 38,000  Level FlightAware
Mon 02:33:48 AM 57.0340 85.2980 288° West 430 495 38,000  Level FlightAware
Mon 02:34:28 AM 57.0590 85.1580 288° West 431 496 38,000  Level FlightAware
Mon 02:35:13 AM 57.0850 85.0070 288° West 430 495 38,000  Level FlightAware
Mon 02:35:53 AM 57.1100 84.8640 288° West 430 495 38,000  Level FlightAware
Mon 02:36:38 AM 57.1400 84.7080 290° West 432 497 38,000  Level FlightAware
Mon 02:37:18 AM 57.1740 84.5760 295° West 433 498 38,000  Level FlightAware
Mon 02:37:58 AM 57.2050 84.4520 295° West 433 498 38,000  Level FlightAware
Mon 02:38:38 AM 57.2340 84.3380 295° West 433 498 38,000  Level FlightAware
Mon 02:39:23 AM 57.2800 84.1590 295° West 434 499 38,000  Level FlightAware
Mon 02:40:03 AM 57.3080 84.0480 295° West 434 499 38,000  Level FlightAware
Mon 02:41:18 AM 57.3710 83.7960 295° West 431 496 38,000  Level FlightAware
Mon 02:42:13 AM 57.4190 83.6020 295° West 432 497 38,000  Level FlightAware
Mon 02:42:58 AM 57.4570 83.4460 294° West 434 499 38,000  Level FlightAware
Mon 02:45:00 AM 57.5549 83.0259 294° West  Level Estimated
Mon 02:45:08 AM 57.5640 83.0040 294° West 432 497 38,000  Level FlightAware
Mon 02:45:58 AM 57.6050 82.8340 294° West 433 498 38,000  Level FlightAware
Mon 02:46:28 AM 57.6290 82.7310 294° West 434 499 38,000  Level FlightAware
Mon 02:47:18 AM 57.6670 82.5700 294° West 435 501 38,000  Level FlightAware
Mon 02:47:53 AM 57.6980 82.4370 294° West 435 501 38,000  Level FlightAware
Mon 02:48:48 AM 57.7400 82.2620 294° West 436 502 38,000  Level FlightAware
Mon 02:49:28 AM 57.7680 82.1450 294° West 436 502 38,000  Level FlightAware
Mon 02:50:08 AM 57.7960 82.0270 294° West 436 502 38,000  Level FlightAware
Mon 02:50:48 AM 57.8230 81.9090 293° West 436 502 38,000  Level FlightAware
Mon 02:51:28 AM 57.8510 81.7920 294° West 436 502 38,000  Level FlightAware
Mon 02:52:18 AM 57.8860 81.6440 294° West 436 502 38,000  Level FlightAware
Mon 02:52:58 AM 57.9140 81.5260 294° West 436 502 38,000  Level FlightAware
Mon 02:53:38 AM 57.9420 81.4080 294° West 436 502 38,000  Level FlightAware
Mon 02:54:18 AM 57.9700 81.2900 294° West 436 502 38,000  Level FlightAware
Mon 02:54:58 AM 57.9980 81.1720 294° West 436 502 38,000  Level FlightAware
Mon 02:55:48 AM 58.0330 81.0240 294° West 436 502 38,000  Level FlightAware
Mon 02:56:28 AM 58.0610 80.9060 294° West 436 502 38,000  Level FlightAware
Mon 02:57:08 AM 58.0880 80.7870 293° West 436 502 38,000  Level FlightAware
Mon 02:57:48 AM 58.1160 80.6690 294° West 436 502 38,000  Level FlightAware
Mon 03:00:00 AM 58.2114 80.1980 291° West  Level Estimated
Mon 03:01:00 AM 58.2543 79.9831 291° West  Level Estimated
Mon 03:02:00 AM 58.2967 79.7676 291° West  Level Estimated
Mon 03:03:00 AM 58.3388 79.5517 290° West  Level Estimated
Mon 03:04:00 AM 58.3805 79.3352 290° West  Level Estimated
Mon 03:05:00 AM 58.4219 79.1182 290° West  Level Estimated
Mon 03:06:00 AM 58.4629 78.9007 290° West  Level Estimated
Mon 03:07:00 AM 58.5035 78.6827 290° West  Level Estimated
Mon 03:08:00 AM 58.5437 78.4642 290° West  Level Estimated
Mon 03:09:00 AM 58.5836 78.2452 289° West  Level Estimated
Mon 03:10:00 AM 58.6231 78.0257 289° West  Level Estimated
Mon 03:11:00 AM 58.6623 77.8057 289° West  Level Estimated
Mon 03:12:00 AM 58.7010 77.5853 289° West  Level Estimated
Mon 03:13:00 AM 58.7394 77.3643 289° West  Level Estimated
Mon 03:14:00 AM 58.7774 77.1428 288° West  Level Estimated
Mon 03:15:00 AM 58.8150 76.9209 288° West  Level Estimated
Mon 03:16:00 AM 58.8522 76.6985 288° West  Level Estimated
Mon 03:17:00 AM 58.8891 76.4756 288° West  Level Estimated
Mon 03:18:00 AM 58.9256 76.2522 288° West  Level Estimated
Mon 03:19:00 AM 58.9616 76.0284 287° West  Level Estimated
Mon 03:20:00 AM 58.9973 75.8041 287° West  Level Estimated
Mon 03:21:00 AM 59.0326 75.5793 287° West  Level Estimated
Mon 03:22:00 AM 59.0676 75.3541 287° West  Level Estimated
Mon 03:22:07 AM 59.2510 74.9690 287° West 452 520 38,000  Level FlightAware
Mon 03:22:52 AM 59.2810 74.8040 290° West 452 520 38,000  Level FlightAware
Mon 03:23:32 AM 59.3080 74.6470 289° West 453 521 38,000  Level FlightAware
Mon 03:24:17 AM 59.3370 74.4760 288° West 456 525 38,000  Level FlightAware
Mon 03:24:52 AM 59.3540 74.3310 283° West 456 525 38,000  Level FlightAware
Mon 03:25:37 AM 59.3750 74.1520 283° West 455 524 38,000  Level FlightAware
Mon 03:26:17 AM 59.3920 74.0090 283° West 454 522 38,000  Level FlightAware
Mon 03:26:57 AM 59.4100 73.8530 283° West 455 524 38,000  Level FlightAware
Mon 03:27:42 AM 59.4330 73.6480 283° West 457 526 38,000  Level FlightAware
Mon 03:28:27 AM 59.4520 73.4800 283° West 458 527 38,000  Level FlightAware
Mon 03:29:07 AM 59.4710 73.3100 282° West 457 526 38,000  Level FlightAware
Mon 03:29:47 AM 59.4900 73.1420 283° West 457 526 38,000  Level FlightAware
Mon 03:30:32 AM 59.5100 72.9590 282° West 456 525 38,000  Level FlightAware
Mon 03:31:12 AM 59.5270 72.7940 282° West 456 525 38,000  Level FlightAware
Mon 03:31:57 AM 59.5460 72.6170 282° West 456 525 38,000  Level FlightAware
Mon 03:32:37 AM 59.5620 72.4630 282° West 457 526 38,000  Level FlightAware
Mon 03:33:12 AM 59.5730 72.3600 282° West 458 527 38,000  Level FlightAware
Mon 03:34:02 AM 59.5980 72.1080 281° West 458 527 38,000  Level FlightAware
Mon 03:34:37 AM 59.6120 71.9690 281° West 458 527 38,000  Level FlightAware
Mon 03:35:22 AM 59.6300 71.7890 281° West 458 527 38,000  Level FlightAware
Mon 03:36:02 AM 59.6480 71.6090 281° West 458 527 38,000  Level FlightAware
Mon 03:36:47 AM 59.6630 71.4400 280° West 460 529 38,000  Level FlightAware
Mon 03:37:32 AM 59.6810 71.2520 281° West 458 527 38,000  Level FlightAware
Mon 03:38:27 AM 59.7010 71.0380 281° West 459 528 38,000  Level FlightAware
Mon 03:39:07 AM 59.7170 70.8600 280° West 458 527 38,000  Level FlightAware
Mon 03:39:52 AM 59.7300 70.7150 280° West 458 527 38,000  Level FlightAware
Mon 03:40:42 AM 59.7510 70.4690 280° West 458 527 38,000  Level FlightAware
Mon 03:41:22 AM 59.7620 70.3280 279° West 458 527 38,000  Level FlightAware
Mon 03:42:12 AM 59.7760 70.1510 279° West 458 527 38,000  Level FlightAware
Mon 03:42:52 AM 59.7880 70.0100 280° West 458 527 38,000  Level FlightAware
Mon 03:43:32 AM 59.7990 69.8690 279° West 458 527 38,000  Level FlightAware
Mon 03:44:12 AM 59.8100 69.7270 279° West 458 527 38,000  Level FlightAware
Mon 03:44:52 AM 59.8210 69.5860 279° West 458 527 38,000  Level FlightAware
Mon 03:47:00 AM 59.8724 69.0825 282° West  Level Estimated
Mon 03:48:00 AM 59.8958 68.8459 281° West  Level Estimated
Mon 03:49:00 AM 59.9188 68.6090 281° West  Level Estimated
Mon 03:50:00 AM 59.9413 68.3718 281° West  Level Estimated
Mon 03:51:00 AM 59.9635 68.1343 281° West  Level Estimated
Mon 03:52:00 AM 59.9852 67.8964 280° West  Level Estimated
Mon 03:53:00 AM 60.0064 67.6583 280° West  Level Estimated
Mon 03:54:00 AM 60.0273 67.4198 280° West  Level Estimated
Mon 03:55:00 AM 60.0477 67.1811 280° West  Level Estimated
Mon 03:56:00 AM 60.0677 66.9420 280° West  Level Estimated
Mon 03:57:00 AM 60.0873 66.7027 279° West  Level Estimated
Mon 03:58:00 AM 60.1064 66.4630 279° West  Level Estimated
Mon 03:59:00 AM 60.1251 66.2232 279° West  Level Estimated
Mon 04:00:00 AM 60.1433 65.9830 279° West  Level Estimated
Mon 04:01:00 AM 60.1612 65.7426 279° West  Level Estimated
Mon 04:02:00 AM 60.1785 65.5019 278° West  Level Estimated
Mon 04:03:00 AM 60.1955 65.2609 278° West  Level Estimated
Mon 04:04:00 AM 60.2120 65.0198 278° West  Level Estimated
Mon 04:05:00 AM 60.2281 64.7783 278° West  Level Estimated
Mon 04:06:00 AM 60.2437 64.5367 278° West  Level Estimated
Mon 04:07:00 AM 60.2589 64.2948 277° West  Level Estimated
Mon 04:08:00 AM 60.2737 64.0527 277° West  Level Estimated
Mon 04:09:00 AM 60.2880 63.8104 277° West  Level Estimated
Mon 04:10:00 AM 60.3018 63.5678 277° West  Level Estimated
Mon 04:11:00 AM 60.3153 63.3251 276° West  Level Estimated
Mon 04:12:00 AM 60.3283 63.0822 276° West  Level Estimated
Mon 04:13:00 AM 60.3408 62.8391 276° West  Level Estimated
Mon 04:14:00 AM 60.3529 62.5957 276° West  Level Estimated
Mon 04:15:00 AM 60.3646 62.3523 276° West  Level Estimated
Mon 04:16:00 AM 60.3758 62.1086 275° West  Level Estimated
Mon 04:17:00 AM 60.3865 61.8648 275° West  Level Estimated
Mon 04:18:00 AM 60.3969 61.6208 275° West  Level Estimated
Mon 04:18:42 AM 60.1330 60.6510 275° West 477 549 38,000  Level FlightAware
Mon 04:19:00 AM 60.4067 61.3767 275° West  Level Estimated
Mon 04:19:32 AM 60.1300 60.4350 268° West 479 551 38,000  Level FlightAware
Mon 04:20:12 AM 60.1280 60.2830 269° West 479 551 38,000  Level FlightAware
Mon 04:20:47 AM 60.1250 60.1180 268° West 477 549 38,000  Level FlightAware
Mon 04:21:37 AM 60.1220 59.8930 269° West 475 547 38,000  Level FlightAware
Mon 04:22:22 AM 60.1180 59.6830 268° West 474 545 38,000  Level FlightAware
Mon 04:23:02 AM 60.1150 59.5290 268° West 473 544 38,000  Level FlightAware
Mon 04:23:42 AM 60.1110 59.3280 268° West 475 547 38,000  Level FlightAware
Mon 04:24:17 AM 60.1070 59.1920 267° West 477 549 38,000  Level FlightAware
Mon 04:25:07 AM 60.1030 58.9870 268° West 476 548 38,000  Level FlightAware
Mon 04:25:52 AM 60.0970 58.7790 267° West 475 547 38,000  Level FlightAware
Mon 04:26:32 AM 60.0930 58.6060 267° West 473 544 38,000  Level FlightAware
Mon 04:27:12 AM 60.0880 58.4210 267° West 475 547 38,000  Level FlightAware
Mon 04:28:12 AM 60.0790 58.1600 266° West 480 552 38,000  Level FlightAware
Mon 04:29:02 AM 60.0720 57.9320 267° West 480 552 38,000  Level FlightAware
Mon 04:29:47 AM 60.0640 57.7320 266° West 479 551 38,000  Level FlightAware
Mon 04:30:27 AM 60.0580 57.5530 266° West 478 550 38,000  Level FlightAware
Mon 04:31:12 AM 60.0510 57.3560 266° West 478 550 38,000  Level FlightAware
Mon 04:31:47 AM 60.0460 57.2150 266° West 479 551 38,000  Level FlightAware
Mon 04:32:37 AM 60.0370 56.9860 266° West 481 554 38,000  Level FlightAware
Mon 04:33:17 AM 60.0300 56.8130 265° West 479 551 38,000  Level FlightAware
Mon 04:34:02 AM 60.0210 56.6030 265° West 479 551 38,000  Level FlightAware
Mon 04:34:42 AM 60.0140 56.4320 265° West 479 551 38,000  Level FlightAware
Mon 04:35:27 AM 60.0060 56.2400 265° West 479 551 38,000  Level FlightAware
Mon 04:36:02 AM 59.9980 56.0840 264° West 480 552 38,000  Level FlightAware
Mon 04:36:47 AM 59.9890 55.8920 265° West 478 550 38,000  Level FlightAware
Mon 04:37:42 AM 59.9770 55.6410 265° West 480 552 38,000  Level FlightAware
Mon 04:38:22 AM 59.9690 55.4740 265° West 480 552 38,000  Level FlightAware
Mon 04:39:22 AM 59.9550 55.2120 264° West 479 551 38,000  Level FlightAware
Mon 04:39:57 AM 59.9470 55.0680 264° West 479 551 38,000  Level FlightAware
Mon 04:40:47 AM 59.9350 54.8370 264° West 480 552 38,000  Level FlightAware
Mon 04:41:32 AM 59.9240 54.6530 263° West 478 550 38,000  Level FlightAware
Mon 04:42:12 AM 59.9130 54.4670 263° West 476 548 38,000  Level FlightAware
Mon 04:42:47 AM 59.9030 54.2920 264° West 477 549 38,000  Level FlightAware
Mon 04:43:32 AM 59.8920 54.1200 263° West 478 550 38,000  Level FlightAware
Mon 04:44:17 AM 59.8790 53.9100 263° West 478 550 38,000  Level FlightAware
Mon 04:44:57 AM 59.8680 53.7400 263° West 477 549 38,000  Level FlightAware
Mon 04:45:42 AM 59.8580 53.5730 263° West 479 551 38,000  Level FlightAware
Mon 04:46:22 AM 59.8450 53.3850 262° West 481 554 38,000  Level FlightAware
Mon 04:46:57 AM 59.8350 53.2370 262° West 482 555 38,000  Level FlightAware
Mon 04:47:42 AM 59.8200 53.0220 262° West 479 551 38,000  Level FlightAware
Mon 04:48:27 AM 59.8070 52.8360 262° West 479 551 38,000  Level FlightAware
Mon 04:49:12 AM 59.7930 52.6450 262° West 480 552 38,000  Level FlightAware
Mon 04:49:47 AM 59.7810 52.4870 261° West 481 554 38,000  Level FlightAware
Mon 04:50:32 AM 59.7670 52.2980 262° West 482 555 38,000  Level FlightAware
Mon 04:51:17 AM 59.7520 52.0990 262° West 484 557 38,000  Level FlightAware
Mon 04:51:57 AM 59.7370 51.9300 260° West 486 559 38,000  Level FlightAware
Mon 04:52:37 AM 59.7170 51.7450 258° West 485 558 38,000  Level FlightAware
Mon 04:53:17 AM 59.6990 51.5760 258° West 484 557 38,000  Level FlightAware
Mon 04:54:07 AM 59.6760 51.3540 258° West 483 556 38,000  Level FlightAware
Mon 04:54:47 AM 59.6580 51.1810 258° West 485 558 38,000  Level FlightAware
Mon 04:55:22 AM 59.6420 51.0280 258° West 486 559 38,000  Level FlightAware
Mon 04:56:22 AM 59.6130 50.7650 258° West 487 560 38,000  Level FlightAware
Mon 04:57:07 AM 59.5920 50.5760 258° West 488 562 38,000  Level FlightAware
Mon 04:57:42 AM 59.5750 50.4240 258° West 489 563 38,000  Level FlightAware
Mon 04:58:27 AM 59.5530 50.2230 258° West 490 564 38,000  Level FlightAware
Mon 04:59:07 AM 59.5320 50.0480 257° West 488 562 38,000  Level FlightAware
Mon 04:59:47 AM 59.5130 49.8840 257° West 487 560 38,000  Level FlightAware
Mon 05:00:37 AM 59.4910 49.6980 257° West 487 560 38,000  Level FlightAware
Mon 05:01:17 AM 59.4740 49.5510 257° West 487 560 38,000  Level FlightAware
Mon 05:01:57 AM 59.4570 49.4040 257° West 487 560 38,000  Level FlightAware
Mon 05:02:37 AM 59.4400 49.2570 257° West 487 560 38,000  Level FlightAware
Mon 05:03:27 AM 59.4180 49.0740 257° West 487 560 38,000  Level FlightAware
Mon 05:04:07 AM 59.4010 48.9270 257° West 487 560 38,000  Level FlightAware
Mon 05:04:47 AM 59.3840 48.7800 257° West 487 560 38,000  Level FlightAware
Mon 05:05:27 AM 59.3660 48.6340 256° West 487 560 38,000  Level FlightAware
Mon 05:06:17 AM 59.3450 48.4510 257° West 487 560 38,000  Level FlightAware
Mon 05:06:57 AM 59.3270 48.3040 257° West 487 560 38,000  Level FlightAware
Mon 05:07:37 AM 59.3100 48.1580 257° West 487 560 38,000  Level FlightAware
Mon 05:08:17 AM 59.2930 48.0120 257° West 487 560 38,000  Level FlightAware
Mon 05:08:57 AM 59.2760 47.8660 257° West 487 560 38,000  Level FlightAware
Mon 05:09:37 AM 59.2590 47.7200 257° West 487 560 38,000  Level FlightAware
Mon 05:12:00 AM 59.2321 47.1586 265° West  Level Estimated
Mon 05:13:00 AM 59.2201 46.9233 264° West  Level Estimated
Mon 05:13:22 AM 59.0500 46.3800 264° West 493 567 38,000  Level FlightAware
Mon 05:14:12 AM 59.0190 46.1690 254° West 492 566 38,000  Level FlightAware
Mon 05:14:52 AM 58.9930 45.9980 254° West 492 566 38,000  Level FlightAware
Mon 05:15:27 AM 58.9720 45.8650 253° West 492 566 38,000  Level FlightAware
Mon 05:16:02 AM 58.9930 45.9980 73° East 38,000  Level FlightAware
Mon 05:16:27 AM 58.9320 45.6000 254° West 493 567 38,000  Level FlightAware
Mon 05:17:12 AM 58.9030 45.4090 254° West 495 570 38,000  Level FlightAware
Mon 05:18:02 AM 58.8710 45.2100 253° West 496 571 38,000  Level FlightAware
Mon 05:18:47 AM 58.8390 45.0080 253° West 498 573 38,000  Level FlightAware
Mon 05:19:27 AM 58.8110 44.8340 253° West 497 572 38,000  Level FlightAware
Mon 05:20:12 AM 58.7820 44.6560 253° West 500 575 38,000  Level FlightAware
Mon 05:20:57 AM 58.7540 44.4870 252° West 500 575 38,000  Level FlightAware
Mon 05:21:37 AM 58.7290 44.3430 252° West 500 575 38,000  Level FlightAware
Mon 05:22:17 AM 58.7050 44.1990 252° West 500 575 38,000  Level FlightAware
Mon 05:22:57 AM 58.6810 44.0550 252° West 500 575 38,000  Level FlightAware
Mon 05:23:37 AM 58.6560 43.9110 252° West 500 575 38,000  Level FlightAware
Mon 05:24:27 AM 58.5970 43.5540 253° West 512 589 38,000  Level FlightAware
Mon 05:25:07 AM 58.5670 43.3820 252° West 511 588 38,000  Level FlightAware
Mon 05:25:52 AM 58.5330 43.1880 252° West 511 588 38,000  Level FlightAware
Mon 05:26:32 AM 58.5020 43.0150 251° West 512 589 38,000  Level FlightAware
Mon 05:27:12 AM 58.4720 42.8470 251° West 511 588 38,000  Level FlightAware
Mon 05:27:52 AM 58.4410 42.6760 251° West 510 587 38,000  Level FlightAware
Mon 05:28:37 AM 58.4080 42.4970 251° West 510 587 38,000  Level FlightAware
Mon 05:29:17 AM 58.3760 42.3210 251° West 509 586 38,000  Level FlightAware
Mon 05:30:02 AM 58.3400 42.1300 250° West 507 583 38,000  Level FlightAware
Mon 05:30:42 AM 58.3090 41.9620 251° West 505 581 38,000  Level FlightAware
Mon 05:31:27 AM 58.2730 41.7750 250° West 504 580 38,000  Level FlightAware
Mon 05:32:07 AM 58.2400 41.6040 250° West 501 577 38,000  Level FlightAware
Mon 05:32:52 AM 58.2050 41.4200 250° West 499 574 38,000  Level FlightAware
Mon 05:33:32 AM 58.1730 41.2560 250° West 499 574 38,000  Level FlightAware
Mon 05:34:12 AM 58.1400 41.0910 249° West 499 574 38,000  Level FlightAware
Mon 05:34:57 AM 58.1040 40.9040 250° West 501 577 38,000  Level FlightAware
Mon 05:35:37 AM 58.0710 40.7410 249° West 500 575 38,000  Level FlightAware
Mon 05:36:12 AM 58.0430 40.6030 249° West 499 574 38,000  Level FlightAware
Mon 05:37:02 AM 58.0020 40.4010 249° West 497 572 38,000  Level FlightAware
Mon 05:37:42 AM 57.9690 40.2380 249° West 497 572 38,000  Level FlightAware
Mon 05:38:27 AM 57.9310 40.0560 249° West 498 573 38,000  Level FlightAware
Mon 05:39:07 AM 57.8990 39.8990 249° West 497 572 38,000  Level FlightAware
Mon 05:39:52 AM 57.8600 39.7150 248° West 498 573 38,000  Level FlightAware
Mon 05:40:27 AM 57.8300 39.5750 248° West 497 572 38,000  Level FlightAware
Mon 05:41:12 AM 57.7940 39.4070 248° West 500 575 38,000  Level FlightAware
Mon 05:41:57 AM 57.7410 39.2250 241° Southwest 510 587 38,000  Level FlightAware
Mon 05:42:37 AM 57.6840 39.0820 233° Southwest 517 595 38,000  Level FlightAware
Mon 05:43:22 AM 57.6190 38.9260 232° Southwest 516 594 38,000  Level FlightAware
Mon 05:44:02 AM 57.5610 38.7880 232° Southwest 517 595 38,000  Level FlightAware
Mon 05:44:42 AM 57.5000 38.6440 232° Southwest 519 597 38,000  Level FlightAware
Mon 05:45:27 AM 57.4340 38.4880 232° Southwest 521 600 38,000  Level FlightAware
Mon 05:46:07 AM 57.3740 38.3480 232° Southwest 521 600 38,000  Level FlightAware
Mon 05:46:52 AM 57.3090 38.1950 232° Southwest 521 600 38,000  Level FlightAware
Mon 05:47:32 AM 57.2490 38.0510 232° Southwest 520 598 38,000  Level FlightAware
Mon 05:48:12 AM 57.1900 37.9070 233° Southwest 522 601 38,000  Level FlightAware
Mon 05:48:57 AM 57.1280 37.7460 235° Southwest 516 594 38,000  Level FlightAware
Mon 05:49:37 AM 57.0870 37.6000 243° Southwest 508 585 38,000  Level FlightAware
Mon 05:50:17 AM 57.0510 37.4320 249° West 506 582 38,000  Level FlightAware
Mon 05:51:02 AM 57.0140 37.2550 249° West 507 583 38,000  Level FlightAware
Mon 05:51:42 AM 56.9800 37.0930 249° West 508 585 38,000  Level FlightAware
Mon 05:52:27 AM 56.9420 36.9110 249° West 510 587 38,000  Level FlightAware
Mon 05:53:07 AM 56.9090 36.7510 249° West 509 586 38,000  Level FlightAware
Mon 05:53:47 AM 56.8740 36.5900 248° West 509 586 38,000  Level FlightAware
Mon 05:54:32 AM 56.8360 36.4110 249° West 509 586 38,000  Level FlightAware
Mon 05:55:12 AM 56.8040 36.2530 250° West 509 586 38,000  Level FlightAware
Mon 05:55:57 AM 56.7660 36.0750 249° West 508 585 38,000  Level FlightAware
Mon 05:56:37 AM 56.7310 35.9110 249° West 507 583 38,000  Level FlightAware
Mon 05:57:17 AM 56.6980 35.7560 249° West 511 588 38,000  Level FlightAware
Mon 05:58:02 AM 56.6580 35.5730 248° West 510 587 38,000  Level FlightAware
Mon 05:58:42 AM 56.6250 35.4210 249° West 510 587 38,000  Level FlightAware
Mon 05:59:22 AM 56.5880 35.2530 248° West 511 588 38,000  Level FlightAware
Mon 06:00:07 AM 56.5490 35.0760 248° West 512 589 38,000  Level FlightAware
Mon 06:00:47 AM 56.5110 34.9180 247° West 517 595 38,000  Level FlightAware
Mon 06:01:32 AM 56.4580 34.7500 240° Southwest 522 601 38,000  Level FlightAware
Mon 06:02:12 AM 56.4100 34.5990 240° Southwest 520 598 38,000  Level FlightAware
Mon 06:02:57 AM 56.3560 34.4310 240° Southwest 522 601 38,000  Level FlightAware
Mon 06:03:37 AM 56.3080 34.2830 240° Southwest 522 601 38,000  Level FlightAware
Mon 06:04:17 AM 56.2580 34.1310 239° Southwest 523 602 38,000  Level FlightAware
Mon 06:05:02 AM 56.2020 33.9630 239° Southwest 523 602 38,000  Level FlightAware
Mon 06:05:42 AM 56.1530 33.8190 239° Southwest 523 602 38,000  Level FlightAware
Mon 06:06:27 AM 56.0960 33.6480 239° Southwest 522 601 38,000  Level FlightAware
Mon 06:07:07 AM 56.0460 33.5020 239° Southwest 522 601 38,000  Level FlightAware
Mon 06:07:47 AM 55.9980 33.3610 239° Southwest 522 601 38,000  Level FlightAware
Mon 06:08:32 AM 55.9410 33.1920 239° Southwest 521 600 38,000  Level FlightAware
Mon 06:09:12 AM 55.8920 33.0430 240° Southwest 521 600 38,000  Level FlightAware
Mon 06:09:52 AM 55.8540 32.8850 247° West 519 597 38,000  Level FlightAware
Mon 06:10:37 AM 55.8260 32.7210 253° West 517 595 38,000  Level FlightAware
Mon 06:12:12 AM 55.7730 32.3120 257° West 516 594 38,000  Level FlightAware
Mon 06:12:57 AM 55.7490 32.1330 257° West 516 594 38,000  Level FlightAware
Mon 06:13:47 AM 55.7220 31.9360 256° West 516 594 38,000  Level FlightAware
Mon 06:14:27 AM 55.7020 31.7960 256° West 516 594 38,000  Level FlightAware
Mon 06:15:07 AM 55.6830 31.6570 256° West 516 594 38,000  Level FlightAware
Mon 06:15:57 AM 55.6580 31.4820 256° West 516 594 38,000  Level FlightAware
Mon 06:16:37 AM 55.6390 31.3430 256° West 516 594 38,000  Level FlightAware
Mon 06:17:17 AM 55.6190 31.2030 256° West 516 594 38,000  Level FlightAware
Mon 06:18:07 AM 55.5940 31.0290 256° West 516 594 38,000  Level FlightAware
Mon 06:18:47 AM 55.5750 30.8900 256° West 516 594 38,000  Level FlightAware
Mon 06:19:27 AM 55.5550 30.7500 256° West 516 594 38,000  Level FlightAware
Mon 06:20:07 AM 55.5350 30.6110 256° West 516 594 38,000  Level FlightAware
Mon 06:20:47 AM 55.4740 30.2480 254° West 504 580 38,000  Level FlightAware
Mon 06:21:37 AM 55.4440 30.0460 255° West 504 580 38,000  Level FlightAware
Mon 06:22:17 AM 55.4210 29.8970 255° West 504 580 38,000  Level FlightAware
Mon 06:23:02 AM 55.3910 29.7080 254° West 504 580 38,000  Level FlightAware
Mon 06:23:42 AM 55.3660 29.5510 254° West 503 579 38,000  Level FlightAware
Mon 06:24:27 AM 55.3380 29.3750 254° West 503 579 38,000  Level FlightAware
Mon 06:25:07 AM 55.3130 29.2190 254° West 503 579 38,000  Level FlightAware
Mon 06:25:47 AM 55.2880 29.0620 254° West 504 580 38,000  Level FlightAware
Mon 06:26:32 AM 55.2580 28.8850 254° West 502 578 38,000  Level FlightAware
Mon 06:27:27 AM 55.2230 28.6750 254° West 501 577 38,000  Level FlightAware
Mon 06:28:07 AM 55.1970 28.5190 254° West 501 577 38,000  Level FlightAware
Mon 06:28:47 AM 55.1710 28.3640 254° West 502 578 38,000  Level FlightAware
Mon 06:29:32 AM 55.1410 28.1880 253° West 500 575 38,000  Level FlightAware
Mon 06:30:12 AM 55.1140 28.0320 253° West 498 573 38,000  Level FlightAware
Mon 06:30:57 AM 55.0850 27.8620 253° West 498 573 38,000  Level FlightAware
Mon 06:31:37 AM 55.0580 27.7090 253° West 499 574 38,000  Level FlightAware
Mon 06:32:22 AM 55.0270 27.5330 253° West 506 582 38,000  Level FlightAware
Mon 06:33:02 AM 55.0000 27.3820 253° West 511 588 38,000  Level FlightAware
Mon 06:33:42 AM 54.9720 27.2250 253° West 511 588 38,000  Level FlightAware
Mon 06:34:22 AM 54.9420 27.0630 252° West 512 589 38,000  Level FlightAware
Mon 06:35:07 AM 54.9110 26.8920 253° West 515 593 38,000  Level FlightAware
Mon 06:35:47 AM 54.8820 26.7330 252° West 515 593 38,000  Level FlightAware
Mon 06:36:32 AM 54.8480 26.5510 252° West 512 589 38,000  Level FlightAware
Mon 06:37:12 AM 54.8190 26.3990 252° West 512 589 38,000  Level FlightAware
Mon 06:37:57 AM 54.7860 26.2270 252° West 511 588 38,000  Level FlightAware
Mon 06:38:37 AM 54.7570 26.0710 252° West 510 587 38,000  Level FlightAware
Mon 06:39:22 AM 54.7240 25.9010 251° West 508 585 38,000  Level FlightAware
Mon 06:40:02 AM 54.6930 25.7420 251° West 505 581 38,000  Level FlightAware
Mon 06:40:47 AM 54.6590 25.5730 251° West 507 583 38,000  Level FlightAware
Mon 06:41:27 AM 54.6270 25.4190 250° West 509 586 38,000  Level FlightAware
Mon 06:42:07 AM 54.5970 25.2720 251° West 510 587 38,000  Level FlightAware
Mon 06:42:52 AM 54.5610 25.0970 251° West 510 587 38,000  Level FlightAware
Mon 06:43:32 AM 54.5280 24.9410 250° West 510 587 38,000  Level FlightAware
Mon 06:44:17 AM 54.4930 24.7720 250° West 506 582 38,000  Level FlightAware
Mon 06:44:57 AM 54.4620 24.6250 250° West 505 581 38,000  Level FlightAware
Mon 06:45:32 AM 54.4350 24.5010 250° West 505 581 38,000  Level FlightAware
Mon 06:46:22 AM 54.3970 24.3210 250° West 506 582 38,000  Level FlightAware
Mon 06:47:02 AM 54.3590 24.1500 249° West 505 581 38,000  Level FlightAware
Mon 06:47:47 AM 54.3230 23.9850 250° West 507 583 38,000  Level FlightAware
Mon 06:48:22 AM 54.2970 23.8650 250° West 505 581 38,000  Level FlightAware
Mon 06:49:07 AM 54.2570 23.6830 249° West 507 583 38,000  Level FlightAware
Mon 06:49:52 AM 54.2200 23.5190 249° West 507 583 38,000  Level FlightAware
Mon 06:50:32 AM 54.1870 23.3730 249° West 507 583 38,000  Level FlightAware
Mon 06:51:12 AM 54.1550 23.2240 250° West 504 580 38,000  Level FlightAware
Mon 06:51:57 AM 54.1220 23.0530 252° West 502 578 38,000  Level FlightAware
Mon 06:52:37 AM 54.0910 22.8990 251° West 500 575 38,000  Level FlightAware
Mon 06:53:22 AM 54.0580 22.7390 251° West 502 578 38,000  Level FlightAware
Mon 06:54:02 AM 54.0270 22.5880 251° West 500 575 38,000  Level FlightAware
Mon 06:54:42 AM 53.9960 22.4400 250° West 498 573 38,000  Level FlightAware
Mon 06:55:27 AM 53.9610 22.2730 250° West 495 570 38,000  Level FlightAware
Mon 06:56:07 AM 53.9290 22.1240 250° West 495 570 38,000  Level FlightAware
Mon 06:56:52 AM 53.8950 21.9650 250° West 494 568 38,000  Level FlightAware
Mon 06:57:32 AM 53.8640 21.8210 250° West 493 567 38,000  Level FlightAware
Mon 06:58:17 AM 53.8280 21.6530 250° West 492 566 38,000  Level FlightAware
Mon 06:58:57 AM 53.7960 21.5090 249° West 492 566 38,000  Level FlightAware
Mon 06:59:42 AM 53.7610 21.3500 250° West 492 566 38,000  Level FlightAware
Mon 07:00:22 AM 53.7290 21.2040 250° West 493 567 38,000  Level FlightAware
Mon 07:01:02 AM 53.6970 21.0630 249° West 493 567 38,000  Level FlightAware
Mon 07:01:47 AM 53.6600 20.8970 249° West 492 566 38,000  Level FlightAware
Mon 07:02:27 AM 53.6270 20.7540 249° West 491 565 38,000  Level FlightAware
Mon 07:03:12 AM 53.5920 20.5990 249° West 491 565 38,000  Level FlightAware
Mon 07:03:52 AM 53.5590 20.4570 249° West 492 566 38,000  Level FlightAware
Mon 07:04:32 AM 53.5260 20.3130 249° West 489 563 38,000  Level FlightAware
Mon 07:05:17 AM 53.4900 20.1580 249° West 486 559 38,000  Level FlightAware
Mon 07:05:57 AM 53.4560 20.0140 248° West 484 557 38,000  Level FlightAware
Mon 07:06:42 AM 53.4200 19.8610 249° West 483 556 38,000  Level FlightAware
Mon 07:07:22 AM 53.3870 19.7230 248° West 481 554 38,000  Level FlightAware
Mon 07:08:02 AM 53.3540 19.5850 248° West 478 550 38,000  Level FlightAware
Mon 07:08:47 AM 53.3170 19.4330 248° West 474 545 38,000  Level FlightAware
Mon 07:09:27 AM 53.2830 19.2930 248° West 471 542 38,000  Level FlightAware
Mon 07:10:12 AM 53.2470 19.1450 248° West 470 541 38,000  Level FlightAware
Mon 07:10:52 AM 53.2140 19.0100 248° West 471 542 38,000  Level FlightAware
Mon 07:11:32 AM 53.1800 18.8750 247° West 472 543 38,000  Level FlightAware
Mon 07:12:17 AM 53.1420 18.7230 247° West 472 543 38,000  Level FlightAware
Mon 07:12:57 AM 53.1090 18.5900 248° West 470 541 38,000  Level FlightAware
Mon 07:13:37 AM 53.0780 18.4650 248° West 468 539 38,000  Level FlightAware
Mon 07:14:17 AM 53.0450 18.3350 247° West 466 536 38,000  Level FlightAware
Mon 07:15:02 AM 53.0050 18.1800 247° West 463 533 38,000  Level FlightAware
Mon 07:15:47 AM 52.9690 18.0380 247° West 461 531 38,000  Level FlightAware
Mon 07:16:27 AM 52.9370 17.9150 247° West 461 531 38,000  Level FlightAware
Mon 07:17:07 AM 52.9010 17.7790 246° West 461 531 38,000  Level FlightAware
Mon 07:17:52 AM 52.8630 17.6310 247° West 462 532 38,000  Level FlightAware
Mon 07:18:32 AM 52.8280 17.5010 246° West 462 532 38,000  Level FlightAware
Mon 07:19:17 AM 52.7890 17.3520 247° West 459 528 38,000  Level FlightAware
Mon 07:19:57 AM 52.7550 17.2240 246° West 458 527 38,000  Level FlightAware
Mon 07:20:42 AM 52.7190 17.0890 246° West 457 526 38,000  Level FlightAware
Mon 07:21:17 AM 52.6890 16.9780 246° West 456 525 38,000  Level FlightAware
Mon 07:22:02 AM 52.6490 16.8330 246° West 453 521 38,000  Level FlightAware
Mon 07:22:37 AM 52.6190 16.7210 246° West 452 520 38,000  Level FlightAware
Mon 07:23:27 AM 52.5760 16.5650 246° West 452 520 38,000  Level FlightAware
Mon 07:24:07 AM 52.5420 16.4400 246° West 452 520 38,000  Level FlightAware
Mon 07:24:52 AM 52.5020 16.2960 246° West 450 518 38,000  Level FlightAware
Mon 07:25:32 AM 52.4680 16.1760 245° Southwest 448 516 38,000  Level FlightAware
Mon 07:26:17 AM 52.4290 16.0380 245° Southwest 449 517 38,000  Level FlightAware
Mon 07:26:57 AM 52.3940 15.9140 245° Southwest 448 516 38,000  Level FlightAware
Mon 07:27:37 AM 52.3600 15.7910 246° West 449 517 38,000  Level FlightAware
Mon 07:28:22 AM 52.3190 15.6500 245° Southwest 449 517 38,000  Level FlightAware
Mon 07:29:07 AM 52.2810 15.5170 245° Southwest 448 516 38,000  Level FlightAware
Mon 07:29:47 AM 52.2490 15.4040 245° Southwest 447 514 38,000  Level FlightAware
Mon 07:30:27 AM 52.2110 15.2760 244° Southwest 445 512 38,000  Level FlightAware
Mon 07:31:12 AM 52.1730 15.1430 245° Southwest 445 512 38,000  Level FlightAware
Mon 07:31:52 AM 52.1360 15.0190 244° Southwest 445 512 38,000  Level FlightAware
Mon 07:32:27 AM 52.1060 14.9160 245° Southwest 445 512 38,000  Level FlightAware
Mon 07:33:17 AM 52.0630 14.7700 244° Southwest 445 512 38,000  Level FlightAware
Mon 07:33:57 AM 52.0270 14.6420 245° Southwest 443 510 38,000  Level FlightAware
Mon 07:34:42 AM 51.9910 14.5070 247° West 442 509 38,000  Level FlightAware
Mon 07:35:22 AM 51.9570 14.3850 246° West 441 507 38,000  Level FlightAware
Mon 07:36:02 AM 51.9230 14.2630 246° West 440 506 38,000  Level FlightAware
Mon 07:36:47 AM 51.8850 14.1230 246° West 438 504 38,000  Level FlightAware
Mon 07:37:27 AM 51.8510 14.0040 245° Southwest 437 503 38,000  Level FlightAware
Mon 07:38:07 AM 51.8180 13.8850 246° West 438 504 38,000  Level FlightAware
Mon 07:38:52 AM 51.7800 13.7510 245° Southwest 437 503 38,000  Level FlightAware
Mon 07:39:32 AM 51.7470 13.6340 246° West 435 501 38,000  Level FlightAware
Mon 07:40:17 AM 51.7090 13.5040 245° Southwest 431 496 38,000 -71 Level FlightAware
Mon 07:40:57 AM 51.6760 13.3860 246° West 431 496 37,900 -635 Descending FlightAware
Mon 07:41:42 AM 51.6380 13.2560 245° Southwest 439 505 37,100 -1,059 Descending FlightAware
Mon 07:42:22 AM 51.6040 13.1390 245° Southwest 436 502 36,400 -825 Descending FlightAware
Mon 07:43:02 AM 51.5710 13.0250 245° Southwest 427 491 36,000 -300 Descending FlightAware
Mon 07:43:42 AM 51.5390 12.9170 245° Southwest 429 494 36,000 -71 Level FlightAware
Mon 07:44:27 AM 51.4990 12.7790 245° Southwest 431 496 35,900 -776 Descending FlightAware
Mon 07:45:07 AM 51.4640 12.6610 245° Southwest 432 497 34,900 -1,553 Descending FlightAware
Mon 07:45:52 AM 51.4250 12.5320 244° Southwest 436 502 33,700 -1,482 Descending FlightAware
Mon 07:46:32 AM 51.3870 12.4300 239° Southwest 437 503 32,800 -1,553 Descending FlightAware
Mon 07:47:17 AM 51.3400 12.2970 241° Southwest 437 503 31,500 -1,650 Descending FlightAware
Mon 07:47:52 AM 51.3060 12.2050 239° Southwest 431 496 30,600 -1,059 Descending FlightAware
Mon 07:48:42 AM 51.2550 12.0670 239° Southwest 424 488 30,000 -400 Descending FlightAware
Mon 07:49:22 AM 51.2160 11.9610 240° Southwest 421 484 30,000  Level FlightAware
Mon 07:50:02 AM 51.1790 11.8490 242° Southwest 425 489 30,000  Level FlightAware
Mon 07:50:47 AM 51.1390 11.7250 243° Southwest 427 491 30,000 -353 Level FlightAware
Mon 07:51:27 AM 51.1030 11.6150 243° Southwest 421 484 29,500 -1,200 Descending FlightAware
Mon 07:52:12 AM 51.0620 11.4910 242° Southwest 412 474 28,300 -1,553 Descending FlightAware
Mon 07:52:52 AM 51.0260 11.3820 242° Southwest 411 473 27,300 -1,575 Descending FlightAware
Mon 07:53:32 AM 50.9920 11.2790 242° Southwest 398 458 26,200 -1,341 Descending FlightAware
Mon 07:54:17 AM 50.9540 11.1640 242° Southwest 390 449 25,400 -847 Descending FlightAware
Mon 07:54:57 AM 50.9220 11.0660 243° Southwest 394 453 25,000 -282 Descending FlightAware
Mon 07:55:42 AM 50.8820 10.9470 242° Southwest 394 453 25,000  Level FlightAware
Mon 07:56:22 AM 50.8470 10.8440 242° Southwest 393 452 25,000 -75 Level FlightAware
Mon 07:57:02 AM 50.8130 10.7450 242° Southwest 394 453 24,900 -635 Descending FlightAware
Mon 07:57:47 AM 50.7750 10.6340 242° Southwest 389 448 24,100 -1,200 Descending FlightAware
Mon 07:58:17 AM 50.7500 10.5610 242° Southwest 384 442 23,400 -1,725 Descending FlightAware
Mon 07:59:07 AM 50.7060 10.4350 241° Southwest 386 444 21,800 -1,958 Descending FlightAware
Mon 07:59:52 AM 50.6680 10.3250 241° Southwest 376 433 20,300 -1,976 Descending FlightAware
Mon 08:00:32 AM 50.6360 10.2360 240° Southwest 369 425 19,000 -1,950 Descending FlightAware
Mon 08:01:12 AM 50.6020 10.1380 241° Southwest 355 409 17,700 -1,760 Descending FlightAware
Mon 08:01:47 AM 50.5760 10.0640 241° Southwest 357 411 16,800 -1,680 Descending FlightAware
Mon 08:02:52 AM 50.5190 9.9030 241° Southwest 369 425 14,900 -1,691 Descending FlightAware
Mon 08:03:37 AM 50.4820 9.8020 240° Southwest 363 418 13,700 -1,482 Descending FlightAware
Mon 08:04:17 AM 50.4500 9.7100 241° Southwest 351 404 12,800 -1,200 Descending FlightAware
Mon 08:04:57 AM 50.4200 9.6270 240° Southwest 346 398 12,100 -1,624 Descending FlightAware
Mon 08:05:42 AM 50.3800 9.5290 237° Southwest 338 389 10,500 -1,971 Descending FlightAware
Mon 08:06:07 AM 50.3600 9.4800 237° Southwest 341 392 9,800 -1,440 Descending FlightAware
Mon 08:06:32 AM 50.3360 9.4220 237° Southwest 339 390 9,300 -1,050 Descending FlightAware
Mon 08:06:47 AM 50.3240 9.3920 238° Southwest 338 389 9,100 -825 Descending FlightAware
Mon 08:09:00 AM 50.1933 9.0156 242° Southwest  Level Estimated
Mon 08:10:00 AM 50.1339 8.8465 241° Southwest  Level Estimated
Mon 08:11:00 AM 50.0743 8.6778 241° Southwest  Level Estimated
Mon 08:11:52 AM 50.1280 8.9270 241° Southwest 220 253 4,900  Level FlightAware
Mon 08:12:00 AM 50.0264 8.5431 241° Southwest  Level Estimated
Mon 08:12:17 AM 50.1120 8.8970 230° Southwest 197 227 4,800  Level FlightAware
Mon 08:13:22 AM 50.0940 8.8140 251° West 185 213 3,300 -1,244 Descending FlightAware
Mon 08:14:32 AM 50.0730 8.7250 250° West 178 205 2,000 -900 Descending FlightAware
Mon 08:15:22 AM 50.0620 8.6790 250° West 157 181 1,500 -480 Descending FlightAware
Mon 08:15:47 AM 50.0550 8.6500 249° West 153 176 1,400 -240 Descending FlightAware
Mon 08:18:00 AM 50.0264 8.5431 247° West  Level Estimated
Mon 08:19:00 AM 50.0264 8.5431 73° East  Level Estimated
Mon 08:20:00 AM 50.0264 8.5431 73° East  Level Estimated
Mon 08:21:00 AM 50.0264 8.5431 73° East  Level Estimated
Mon 08:22:00 AM 50.0264 8.5431 73° East  Level Estimated

Login

Don't have an account? Register now (free) for customized features, flight alerts, and more!